Time;durP1;ratioP1;P1;durP2;ratioP2;P2;SDS_P1;SDS_P2;PMS_P1;PMS_P2;Temp;Humidity;BMP_temperature;BMP_pressure;BME280_temperature;BME280_humidity;BME280_pressure;Samples;Min_cycle;Max_cycle;Signal;HPM_P1;HPM_P2
2024/03/12 00:01:40;;;;;;;8.57;4.15;;;7.80;99.90;;;;;;5098011;28;20115;-84
2024/03/12 00:04:09;;;;;;;8.30;4.13;;;7.80;99.90;;;;;;5084669;28;20027;-85
2024/03/12 00:06:35;;;;;;;11.98;5.43;;;7.80;99.90;;;;;;5085764;28;20020;-84
2024/03/12 00:09:06;;;;;;;9.95;5.18;;;7.80;99.90;;;;;;5082255;28;20023;-85
2024/03/12 00:11:32;;;;;;;9.48;5.40;;;7.80;99.90;;;;;;5082677;28;20024;-84
2024/03/12 00:13:58;;;;;;;12.20;6.13;;;7.80;99.90;;;;;;5086994;28;20044;-84
2024/03/12 00:16:23;;;;;;;13.35;6.95;;;7.80;99.90;;;;;;5086001;28;20031;-84
2024/03/12 00:18:53;;;;;;;14.35;7.35;;;7.70;99.90;;;;;;5088307;28;20497;-84
2024/03/12 00:21:20;;;;;;;14.50;7.18;;;7.70;99.90;;;;;;5102137;28;20085;-85
2024/03/12 00:23:47;;;;;;;18.92;8.07;;;7.80;99.90;;;;;;5104208;28;20020;-85
2024/03/12 00:26:17;;;;;;;17.55;8.05;;;7.70;99.90;;;;;;5082401;28;20052;-85
2024/03/12 00:28:43;;;;;;;16.92;8.32;;;7.70;99.90;;;;;;5106735;28;20076;-85
2024/03/12 00:31:09;;;;;;;17.67;8.80;;;7.70;99.90;;;;;;5083222;28;20088;-85
2024/03/12 00:33:35;;;;;;;20.83;9.18;;;7.70;99.90;;;;;;5086153;28;20020;-84
2024/03/12 00:36:01;;;;;;;17.00;8.88;;;7.70;99.90;;;;;;5086364;28;20048;-84
2024/03/12 00:38:28;;;;;;;23.10;9.50;;;7.70;99.90;;;;;;5104341;28;20070;-84
2024/03/12 00:40:55;;;;;;;17.88;10.13;;;7.70;99.90;;;;;;5084739;28;20044;-84
2024/03/12 00:43:23;;;;;;;21.83;11.10;;;7.80;99.90;;;;;;5083036;28;20020;-84
2024/03/12 00:45:49;;;;;;;23.90;11.95;;;7.70;99.90;;;;;;5090489;28;20448;-84
2024/03/12 00:48:15;;;;;;;26.77;10.93;;;7.60;99.90;;;;;;5092074;28;20048;-84
2024/03/12 00:50:43;;;;;;;25.38;12.02;;;7.60;99.90;;;;;;5077224;28;20031;-84
2024/03/12 00:53:11;;;;;;;26.50;12.57;;;7.60;99.90;;;;;;5082989;28;20024;-84
2024/03/12 00:55:36;;;;;;;30.67;13.38;;;7.50;99.90;;;;;;5092005;28;20028;-84
2024/03/12 00:58:04;;;;;;;24.58;11.80;;;7.60;99.90;;;;;;5097985;28;20043;-85
2024/03/12 01:00:33;;;;;;;29.02;13.38;;;7.60;99.90;;;;;;5084289;28;20032;-85
2024/03/12 01:02:59;;;;;;;28.88;14.13;;;7.50;99.90;;;;;;5085711;28;20032;-84
2024/03/12 01:05:30;;;;;;;30.35;14.63;;;7.50;99.90;;;;;;5086121;28;20515;-84
2024/03/12 01:08:01;;;;;;;30.23;13.43;;;7.50;99.90;;;;;;5082024;28;20019;-84
2024/03/12 01:10:32;;;;;;;32.90;15.32;;;7.50;99.90;;;;;;5083139;28;20052;-84
2024/03/12 01:13:00;;;;;;;32.13;15.18;;;7.50;99.90;;;;;;5104269;28;20020;-83
2024/03/12 01:15:29;;;;;;;30.63;14.80;;;7.50;99.90;;;;;;5099270;28;20027;-83
2024/03/12 01:17:58;;;;;;;30.30;15.13;;;7.50;99.90;;;;;;5081762;28;20020;-84
2024/03/12 01:20:25;;;;;;;31.85;15.63;;;7.60;99.90;;;;;;5085146;28;20420;-84
2024/03/12 01:22:54;;;;;;;36.67;16.02;;;7.50;99.90;;;;;;5083833;28;20358;-86
2024/03/12 01:25:21;;;;;;;34.08;16.50;;;7.60;99.90;;;;;;5080487;28;20043;-83
2024/03/12 01:27:47;;;;;;;38.38;17.20;;;7.50;99.90;;;;;;5086066;28;20051;-83
2024/03/12 01:30:20;;;;;;;35.72;16.70;;;7.50;99.90;;;;;;5083460;28;20126;-84
2024/03/12 01:32:46;;;;;;;;;;;7.50;99.90;;;;;;5085207;28;20558;-84
2024/03/12 01:35:13;;;;;;;40.35;17.00;;;7.50;99.90;;;;;;5099153;28;19926;-83
2024/03/12 01:37:43;;;;;;;35.40;15.93;;;7.50;99.90;;;;;;5077454;28;20424;-84
2024/03/12 01:40:21;;;;;;;40.03;17.63;;;7.50;99.90;;;;;;5087962;28;20035;-84
2024/03/12 01:42:51;;;;;;;46.90;19.15;;;7.50;99.90;;;;;;5078276;28;20520;-84
2024/03/12 01:45:20;;;;;;;47.47;19.67;;;7.50;99.90;;;;;;5079217;28;20059;-83
2024/03/12 01:47:46;;;;;;;46.00;18.58;;;7.50;99.90;;;;;;5077704;28;20024;-84
2024/03/12 01:50:12;;;;;;;41.97;17.60;;;7.50;99.90;;;;;;5102141;28;20027;-84
2024/03/12 01:52:38;;;;;;;45.90;19.27;;;7.50;99.90;;;;;;5079531;28;20028;-84
2024/03/12 01:55:04;;;;;;;42.58;18.08;;;7.50;99.90;;;;;;5081459;28;20048;-84
2024/03/12 01:57:30;;;;;;;46.50;19.70;;;7.50;99.90;;;;;;5084486;28;20031;-84
2024/03/12 01:59:56;;;;;;;46.22;20.77;;;7.50;99.90;;;;;;5085381;28;20030;-84
2024/03/12 02:02:22;;;;;;;46.10;20.33;;;7.50;99.90;;;;;;5085069;28;20031;-83
2024/03/12 02:04:48;;;;;;;42.90;17.58;;;7.50;99.90;;;;;;5091796;28;20032;-83
2024/03/12 02:07:13;;;;;;;46.30;17.83;;;7.50;99.90;;;;;;5109627;28;20032;-84
2024/03/12 02:09:43;;;;;;;40.88;17.67;;;7.50;99.90;;;;;;5106591;28;20274;-84
2024/03/12 02:12:08;;;;;;;40.17;17.38;;;7.50;99.90;;;;;;5082037;28;20019;-84
2024/03/12 02:14:35;;;;;;;38.67;18.27;;;7.50;99.90;;;;;;5092055;28;20023;-83
2024/03/12 02:17:05;;;;;;;38.10;17.27;;;7.50;99.90;;;;;;5089323;28;20020;-85
2024/03/12 02:19:30;;;;;;;37.55;17.33;;;7.50;99.90;;;;;;5085531;28;20175;-84
2024/03/12 02:21:56;;;;;;;34.00;15.75;;;7.50;99.90;;;;;;5090963;28;20060;-84
2024/03/12 02:24:22;;;;;;;36.78;16.27;;;7.50;99.90;;;;;;5079752;28;20386;-84
2024/03/12 02:26:47;;;;;;;30.45;15.45;;;7.50;99.90;;;;;;5086194;28;20012;-84
2024/03/12 02:29:13;;;;;;;37.65;16.98;;;7.50;99.90;;;;;;5083290;28;20026;-84
2024/03/12 02:31:38;;;;;;;32.13;15.52;;;7.50;99.90;;;;;;5100491;28;20019;-84
2024/03/12 02:34:04;;;;;;;31.92;14.13;;;7.50;99.90;;;;;;5087151;28;20064;-85
2024/03/12 02:36:29;;;;;;;33.63;14.32;;;7.50;99.90;;;;;;5107740;28;20087;-84
2024/03/12 02:38:55;;;;;;;33.55;14.52;;;7.50;99.90;;;;;;5107740;28;20050;-83
2024/03/12 02:41:21;;;;;;;32.15;14.57;;;7.50;99.90;;;;;;5082376;28;20027;-83
2024/03/12 02:43:48;;;;;;;30.90;14.63;;;7.50;99.90;;;;;;5102640;28;20047;-85
2024/03/12 02:46:14;;;;;;;31.92;14.75;;;7.50;99.90;;;;;;5091685;28;20054;-83
2024/03/12 02:48:42;;;;;;;29.60;14.57;;;7.50;99.90;;;;;;5079249;28;20046;-83
2024/03/12 02:51:08;;;;;;;29.88;14.20;;;7.40;99.90;;;;;;5082051;28;20040;-83
2024/03/12 02:53:34;;;;;;;33.90;14.43;;;7.40;99.90;;;;;;5089139;28;20055;-84
2024/03/12 02:56:00;;;;;;;34.50;14.02;;;7.40;99.90;;;;;;5085119;28;20016;-83
2024/03/12 02:58:26;;;;;;;32.70;14.68;;;7.40;99.90;;;;;;5081485;28;20486;-83
2024/03/12 03:00:53;;;;;;;32.92;14.18;;;7.50;99.90;;;;;;5098225;28;20053;-84
2024/03/12 03:03:21;;;;;;;33.72;16.70;;;7.40;99.90;;;;;;5100837;28;20020;-84
2024/03/12 03:05:48;;;;;;;32.20;15.45;;;7.40;99.90;;;;;;5078277;28;20462;-84
2024/03/12 03:08:13;;;;;;;45.55;18.15;;;7.50;99.90;;;;;;5079286;28;20024;-83
2024/03/12 03:10:39;;;;;;;35.63;16.35;;;7.50;99.90;;;;;;5090566;28;20031;-83
2024/03/12 03:13:05;;;;;;;42.22;18.77;;;7.40;99.90;;;;;;5094785;28;20020;-84
2024/03/12 03:15:30;;;;;;;41.40;19.45;;;7.50;99.90;;;;;;5086409;28;20027;-83
2024/03/12 03:17:56;;;;;;;49.97;20.98;;;7.50;99.90;;;;;;5095992;28;20031;-84
2024/03/12 03:20:22;;;;;;;49.67;19.83;;;7.40;99.90;;;;;;5094077;28;20140;-84
2024/03/12 03:22:47;;;;;;;46.97;21.42;;;7.40;99.90;;;;;;5088365;28;20472;-84
2024/03/12 03:25:13;;;;;;;50.20;21.65;;;7.40;99.90;;;;;;5095452;28;20540;-82
2024/03/12 03:27:39;;;;;;;46.70;20.48;;;7.40;99.90;;;;;;5096716;28;20505;-84
2024/03/12 03:30:08;;;;;;;56.22;24.83;;;7.40;99.90;;;;;;5090290;28;20020;-84
2024/03/12 03:32:35;;;;;;;48.65;22.05;;;7.50;99.90;;;;;;5090843;28;20028;-83
2024/03/12 03:35:03;;;;;;;49.60;20.52;;;7.50;99.90;;;;;;5086272;28;20115;-83
2024/03/12 03:37:34;;;;;;;50.05;21.58;;;7.40;99.90;;;;;;5085582;28;20119;-83
2024/03/12 03:40:04;;;;;;;44.95;21.83;;;7.40;99.90;;;;;;5088293;28;20027;-83
2024/03/12 03:42:31;;;;;;;48.78;21.92;;;7.40;99.90;;;;;;5091163;28;20149;-83
2024/03/12 03:44:56;;;;;;;54.35;21.83;;;7.40;99.90;;;;;;5088766;28;20024;-83
2024/03/12 03:47:22;;;;;;;51.45;22.90;;;7.40;99.90;;;;;;5091824;28;20084;-82
2024/03/12 03:49:48;;;;;;;63.30;26.52;;;7.40;99.90;;;;;;5094693;28;20450;-83
2024/03/12 03:52:13;;;;;;;66.10;25.23;;;7.40;99.90;;;;;;5091813;28;20033;-85
2024/03/12 03:54:39;;;;;;;58.92;24.48;;;7.40;99.90;;;;;;5090720;28;20036;-85
2024/03/12 03:57:05;;;;;;;72.68;27.38;;;7.40;99.90;;;;;;5084583;28;20035;-84
2024/03/12 03:59:31;;;;;;;64.97;27.27;;;7.40;99.90;;;;;;5092391;28;20366;-82
2024/03/12 04:01:57;;;;;;;58.30;24.48;;;7.40;99.90;;;;;;5089475;28;20071;-82
2024/03/12 04:04:24;;;;;;;57.22;22.77;;;7.40;99.90;;;;;;5085490;28;20039;-83
2024/03/12 04:06:51;;;;;;;48.88;23.58;;;7.40;99.90;;;;;;5087211;28;20385;-84
2024/03/12 04:09:17;;;;;;;46.60;21.42;;;7.40;99.90;;;;;;5087325;28;20062;-83
2024/03/12 04:11:48;;;;;;;43.78;21.58;;;7.40;99.90;;;;;;5083733;28;20024;-84
2024/03/12 04:14:15;;;;;;;57.42;22.60;;;7.40;99.90;;;;;;5114059;28;20047;-85
2024/03/12 04:16:40;;;;;;;47.85;20.98;;;7.40;99.90;;;;;;5089082;28;20024;-85
2024/03/12 04:19:06;;;;;;;44.30;20.42;;;7.40;99.90;;;;;;5082387;28;20043;-85
2024/03/12 04:21:31;;;;;;;39.67;19.98;;;7.40;99.90;;;;;;5094502;28;20031;-85
2024/03/12 04:23:57;;;;;;;43.35;19.50;;;7.40;99.90;;;;;;5094463;28;20125;-85
2024/03/12 04:26:23;;;;;;;43.70;19.95;;;7.40;99.90;;;;;;5088404;28;20661;-82
2024/03/12 04:28:48;;;;;;;53.78;20.35;;;7.30;99.90;;;;;;5103600;28;20027;-84
2024/03/12 04:31:14;;;;;;;51.35;20.90;;;7.30;99.90;;;;;;5109477;28;20095;-84
2024/03/12 04:33:40;;;;;;;46.13;19.88;;;7.30;99.90;;;;;;5089613;28;20020;-84
2024/03/12 04:36:06;;;;;;;42.53;19.60;;;7.30;99.90;;;;;;5083253;28;20524;-85
2024/03/12 04:38:32;;;;;;;38.53;18.63;;;7.30;99.90;;;;;;5107862;28;20024;-85
2024/03/12 04:40:59;;;;;;;46.65;20.58;;;7.30;99.90;;;;;;5081306;28;20058;-84
2024/03/12 04:43:24;;;;;;;47.45;20.27;;;7.30;99.90;;;;;;5087543;28;20127;-84
2024/03/12 04:45:50;;;;;;;44.78;18.58;;;7.30;99.90;;;;;;5096221;28;20075;-85
2024/03/12 04:48:15;;;;;;;41.95;18.83;;;7.30;99.90;;;;;;5100150;28;20466;-84
2024/03/12 04:50:41;;;;;;;42.55;18.80;;;7.30;99.90;;;;;;5092597;28;20512;-84
2024/03/12 04:53:07;;;;;;;41.63;18.52;;;7.30;99.90;;;;;;5105487;28;20016;-84
2024/03/12 04:55:39;;;;;;;38.33;18.63;;;7.30;99.90;;;;;;5101313;28;20045;-84
2024/03/12 04:58:05;;;;;;;44.35;17.38;;;7.30;99.90;;;;;;5087788;28;20047;-85
2024/03/12 05:00:31;;;;;;;37.15;17.70;;;7.20;99.90;;;;;;5089761;28;20034;-83
2024/03/12 05:02:56;;;;;;;36.45;16.90;;;7.30;99.90;;;;;;5089820;28;20028;-85
2024/03/12 05:05:23;;;;;;;35.38;17.08;;;7.30;99.90;;;;;;5092181;28;20027;-84
2024/03/12 05:07:50;;;;;;;39.30;17.85;;;7.20;99.90;;;;;;5087055;28;20040;-83
2024/03/12 05:10:16;;;;;;;38.55;17.45;;;7.20;99.90;;;;;;5099750;28;20015;-83
2024/03/12 05:12:43;;;;;;;36.55;17.25;;;7.20;99.90;;;;;;5086812;28;20030;-84
2024/03/12 05:15:11;;;;;;;35.55;15.50;;;7.20;99.90;;;;;;5079566;28;20020;-85
2024/03/12 05:17:39;;;;;;;38.10;16.60;;;7.20;99.90;;;;;;5083484;28;20049;-86
2024/03/12 05:20:17;;;;;;;35.70;15.75;;;7.30;99.90;;;;;;5088632;28;20055;-85
2024/03/12 05:22:43;;;;;;;31.52;15.18;;;7.20;99.90;;;;;;5082374;28;20086;-84
2024/03/12 05:25:10;;;;;;;37.50;16.33;;;7.20;99.90;;;;;;5089477;28;20114;-84
2024/03/12 05:27:43;;;;;;;39.15;16.02;;;7.20;99.90;;;;;;5106127;28;20019;-84
2024/03/12 05:30:14;;;;;;;36.97;16.52;;;7.20;99.90;;;;;;5086684;28;20034;-84
2024/03/12 05:32:47;;;;;;;40.28;16.45;;;7.20;99.90;;;;;;5087680;28;20095;-83
2024/03/12 05:35:22;;;;;;;42.05;16.85;;;7.20;99.90;;;;;;5078154;28;20028;-83
2024/03/12 05:40:39;;;;;;;30.10;15.32;;;7.20;99.90;;;;;;5101306;28;20760;-85
2024/03/12 05:48:38;;;;;;;37.45;17.38;;;7.20;99.90;;;;;;5100512;28;20088;-83
2024/03/12 05:51:04;;;;;;;35.75;16.88;;;7.20;99.90;;;;;;5083254;28;20326;-84
2024/03/12 05:53:29;;;;;;;39.90;17.13;;;7.20;99.90;;;;;;5100273;28;20032;-84
2024/03/12 05:55:55;;;;;;;38.85;16.23;;;7.20;99.90;;;;;;5081684;28;20120;-83
2024/03/12 05:58:21;;;;;;;38.78;17.45;;;7.10;99.90;;;;;;5085291;28;20057;-84
2024/03/12 06:00:48;;;;;;;32.10;15.70;;;7.10;99.90;;;;;;5063614;28;20383;-84
2024/03/12 06:03:14;;;;;;;33.78;15.98;;;7.10;99.90;;;;;;5090374;28;20028;-84
2024/03/12 06:05:41;;;;;;;47.80;17.60;;;7.10;99.90;;;;;;5090857;28;20096;-84
2024/03/12 06:08:07;;;;;;;37.13;17.20;;;7.10;99.90;;;;;;5082691;28;20057;-84
2024/03/12 06:10:33;;;;;;;41.60;17.20;;;7.10;99.90;;;;;;5086225;28;20122;-84
2024/03/12 06:12:58;;;;;;;43.10;17.15;;;7.10;99.90;;;;;;5082013;28;20123;-85
2024/03/12 06:15:24;;;;;;;43.13;18.25;;;7.10;99.90;;;;;;5084216;28;20379;-84
2024/03/12 06:17:49;;;;;;;40.05;16.48;;;7.10;99.90;;;;;;5084833;28;20032;-83
2024/03/12 06:20:15;;;;;;;44.58;17.52;;;7.00;99.90;;;;;;5097395;28;20490;-84
2024/03/12 06:22:44;;;;;;;36.63;17.25;;;7.00;99.90;;;;;;5080431;28;20115;-83
2024/03/12 06:25:10;;;;;;;48.70;17.83;;;7.00;99.90;;;;;;5086337;28;20028;-84
2024/03/12 06:27:37;;;;;;;40.53;17.73;;;7.00;99.90;;;;;;5080432;28;20020;-83
2024/03/12 06:30:03;;;;;;;40.30;16.92;;;7.00;99.90;;;;;;5077924;28;20059;-84
2024/03/12 06:32:31;;;;;;;45.88;19.58;;;7.10;99.90;;;;;;5077972;28;20040;-84
2024/03/12 06:34:57;;;;;;;40.08;17.48;;;7.10;99.90;;;;;;5080491;28;20024;-84
2024/03/12 06:37:23;;;;;;;40.20;17.15;;;7.00;99.90;;;;;;5095955;28;20067;-83
2024/03/12 06:39:49;;;;;;;41.17;18.05;;;7.00;99.90;;;;;;5079349;28;20028;-83
2024/03/12 06:42:19;;;;;;;59.80;21.83;;;7.00;99.90;;;;;;5076296;28;20028;-84
2024/03/12 06:44:46;;;;;;;43.60;19.00;;;7.10;99.90;;;;;;5081143;28;20102;-84
2024/03/12 06:47:12;;;;;;;46.78;19.10;;;7.10;99.90;;;;;;5099640;28;20080;-84
2024/03/12 06:49:44;;;;;;;41.10;17.58;;;7.10;99.90;;;;;;5100105;28;20051;-84
2024/03/12 06:52:10;;;;;;;45.95;17.52;;;7.00;99.90;;;;;;5082212;28;20020;-84
2024/03/12 06:54:36;;;;;;;40.17;16.75;;;7.00;99.90;;;;;;5082965;28;20078;-84
2024/03/12 06:57:04;;;;;;;39.90;17.10;;;7.00;99.90;;;;;;5082621;28;20039;-85
2024/03/12 06:59:31;;;;;;;40.92;17.67;;;7.00;99.90;;;;;;5101539;28;20126;-85
2024/03/12 07:01:57;;;;;;;44.30;16.85;;;7.00;99.90;;;;;;5081719;28;20028;-85
2024/03/12 07:04:34;;;;;;;40.90;17.27;;;7.00;99.90;;;;;;5083303;28;20036;-85
2024/03/12 07:07:06;;;;;;;41.33;16.42;;;7.00;99.90;;;;;;5075602;28;20021;-84
2024/03/12 07:09:39;;;;;;;40.80;16.08;;;7.00;99.90;;;;;;5083416;28;20035;-84
2024/03/12 07:12:08;;;;;;;41.80;17.02;;;7.00;99.90;;;;;;5081619;28;20031;-85
2024/03/12 07:14:42;;;;;;;36.90;16.55;;;7.00;99.90;;;;;;5082900;28;20030;-84
2024/03/12 07:17:09;;;;;;;38.53;17.60;;;7.00;99.90;;;;;;5084770;28;20020;-84
2024/03/12 07:19:38;;;;;;;40.25;16.63;;;7.00;99.90;;;;;;5101258;28;20036;-84
2024/03/12 07:22:07;;;;;;;40.30;17.02;;;7.00;99.90;;;;;;5083846;28;20112;-85
2024/03/12 07:24:34;;;;;;;40.28;16.25;;;7.00;99.90;;;;;;5081726;28;20024;-84
2024/03/12 07:27:04;;;;;;;38.70;15.90;;;7.00;99.90;;;;;;5080641;28;20121;-83
2024/03/12 07:29:32;;;;;;;41.65;17.42;;;7.00;99.90;;;;;;5082548;28;20020;-84
2024/03/12 07:32:02;;;;;;;35.13;16.25;;;7.00;99.90;;;;;;5084819;28;20051;-84
2024/03/12 07:34:29;;;;;;;41.90;15.98;;;7.00;99.90;;;;;;5103369;28;20028;-84
2024/03/12 07:36:54;;;;;;;39.80;15.75;;;7.00;99.90;;;;;;5084172;28;20050;-84
2024/03/12 07:39:26;;;;;;;42.40;16.45;;;7.00;99.90;;;;;;5083812;28;20024;-84
2024/03/12 07:41:55;;;;;;;42.33;16.38;;;7.00;99.90;;;;;;5080123;28;20024;-84
2024/03/12 07:44:22;;;;;;;40.83;16.20;;;7.00;99.90;;;;;;5099654;28;20410;-84
2024/03/12 07:46:48;;;;;;;37.13;14.68;;;7.00;99.90;;;;;;5084718;28;20016;-84
2024/03/12 07:49:20;;;;;;;39.22;15.80;;;6.90;99.90;;;;;;5081563;28;20509;-84
2024/03/12 07:51:49;;;;;;;39.15;15.60;;;7.00;99.90;;;;;;5083842;28;20035;-84
2024/03/12 07:54:18;;;;;;;39.70;16.63;;;7.00;99.90;;;;;;5082497;28;20027;-84
2024/03/12 07:56:50;;;;;;;35.40;14.98;;;7.00;99.90;;;;;;5099540;28;20036;-84
2024/03/12 07:59:17;;;;;;;40.85;15.95;;;7.00;99.90;;;;;;5083466;28;20016;-84
2024/03/12 08:01:46;;;;;;;41.08;15.60;;;6.90;99.90;;;;;;5083231;28;20028;-84
2024/03/12 08:04:13;;;;;;;39.15;16.35;;;6.90;99.90;;;;;;5082720;28;20089;-84
2024/03/12 08:06:40;;;;;;;38.90;16.55;;;6.90;99.90;;;;;;5082349;28;20043;-85
2024/03/12 08:09:07;;;;;;;53.35;21.33;;;6.90;99.90;;;;;;5087985;28;20478;-84
2024/03/12 08:11:33;;;;;;;50.53;15.70;;;7.00;99.90;;;;;;5082157;28;20442;-84
2024/03/12 08:13:59;;;;;;;39.33;15.80;;;7.00;99.90;;;;;;5079343;28;20032;-84
2024/03/12 08:16:25;;;;;;;44.35;16.92;;;7.00;99.90;;;;;;5077792;28;20020;-83
2024/03/12 08:18:51;;;;;;;38.42;16.42;;;7.10;99.90;;;;;;5078749;28;20021;-84
2024/03/12 08:21:16;;;;;;;38.75;16.20;;;7.10;99.90;;;;;;5081512;28;20043;-84
2024/03/12 08:23:42;;;;;;;39.67;17.67;;;7.20;99.90;;;;;;5083971;28;20127;-85
2024/03/12 08:26:08;;;;;;;37.80;15.95;;;7.20;99.90;;;;;;5079781;28;20024;-84
2024/03/12 08:28:34;;;;;;;39.17;15.60;;;7.20;99.90;;;;;;5080827;28;20055;-84
2024/03/12 08:31:00;;;;;;;37.08;17.08;;;7.20;99.90;;;;;;5083107;28;20058;-84
2024/03/12 08:33:26;;;;;;;35.08;16.75;;;7.20;99.90;;;;;;5083503;28;20024;-84
2024/03/12 08:35:51;;;;;;;38.15;15.73;;;7.30;99.90;;;;;;5084478;28;20027;-85
2024/03/12 08:38:18;;;;;;;37.63;16.55;;;7.40;99.90;;;;;;5083776;28;20048;-85
2024/03/12 08:40:44;;;;;;;39.03;15.77;;;7.40;99.90;;;;;;5081846;28;20048;-84
2024/03/12 08:43:10;;;;;;;40.75;16.58;;;7.40;99.90;;;;;;5082919;28;20046;-84
2024/03/12 08:45:36;;;;;;;42.10;17.35;;;7.40;99.90;;;;;;5080241;28;20024;-85
2024/03/12 08:48:03;;;;;;;39.28;16.67;;;7.40;99.90;;;;;;5084718;28;20544;-85
2024/03/12 08:50:29;;;;;;;48.13;19.75;;;7.50;99.90;;;;;;5083736;28;20123;-84
2024/03/12 08:52:55;;;;;;;44.38;19.30;;;7.40;99.90;;;;;;5083424;28;20480;-85
2024/03/12 08:55:20;;;;;;;48.80;20.88;;;7.50;99.90;;;;;;5083013;28;20044;-84
2024/03/12 08:57:46;;;;;;;44.38;19.52;;;7.50;99.90;;;;;;5082167;28;20107;-85
2024/03/12 09:00:12;;;;;;;37.45;16.30;;;7.50;99.90;;;;;;5088376;28;20024;-85
2024/03/12 09:02:39;;;;;;;33.88;14.95;;;7.50;99.90;;;;;;5081026;28;20039;-84
2024/03/12 09:05:09;;;;;;;39.53;16.45;;;7.50;99.90;;;;;;5100558;28;20032;-85
2024/03/12 09:07:37;;;;;;;37.53;16.17;;;7.50;99.90;;;;;;5084805;28;20020;-84
2024/03/12 09:10:12;;;;;;;39.10;16.77;;;7.50;99.90;;;;;;5082361;28;20028;-85
2024/03/12 09:12:40;;;;;;;42.40;17.48;;;7.50;99.90;;;;;;5082517;28;20101;-84
2024/03/12 09:15:08;;;;;;;43.33;17.98;;;7.50;99.90;;;;;;5073839;22;20123;-55
2024/03/12 09:17:38;;;;;;;41.58;19.55;;;7.50;99.90;;;;;;5070122;28;20032;-54
2024/03/12 09:20:10;;;;;;;35.65;16.83;;;7.50;99.90;;;;;;5064996;28;20025;-55
2024/03/12 09:22:36;;;;;;;38.42;16.38;;;7.50;99.90;;;;;;5062862;28;20028;-56
2024/03/12 09:25:04;;;;;;;40.42;17.35;;;7.60;99.90;;;;;;5059954;28;20365;-55
2024/03/12 09:27:30;;;;;;;33.60;16.10;;;7.60;99.90;;;;;;5058023;28;20070;-55
2024/03/12 09:29:56;;;;;;;38.08;16.90;;;7.60;99.90;;;;;;5059536;28;20025;-53
2024/03/12 09:32:22;;;;;;;41.17;18.55;;;7.60;99.90;;;;;;5060617;28;20035;-55
2024/03/12 09:34:47;;;;;;;34.63;15.52;;;7.70;99.90;;;;;;5071683;28;20028;-56
2024/03/12 09:37:15;;;;;;;37.60;16.63;;;7.80;99.90;;;;;;5071685;28;20541;-56
2024/03/12 09:39:44;;;;;;;36.35;16.10;;;7.80;99.90;;;;;;5071014;28;20486;-57
2024/03/12 09:42:11;;;;;;;38.20;17.70;;;7.90;99.90;;;;;;5053638;28;20474;-57
2024/03/12 09:44:37;;;;;;;32.88;15.93;;;7.90;99.90;;;;;;5051311;28;20071;-55
2024/03/12 09:47:05;;;;;;;32.05;14.93;;;7.90;99.90;;;;;;5050865;28;20107;-55
2024/03/12 09:49:32;;;;;;;35.17;15.77;;;8.00;99.90;;;;;;5051179;28;20035;-53
2024/03/12 09:51:58;;;;;;;29.40;15.13;;;8.10;99.90;;;;;;5051091;28;20024;-54
2024/03/12 09:54:27;;;;;;;31.40;16.20;;;8.20;99.90;;;;;;5051390;28;20021;-57
2024/03/12 09:56:54;;;;;;;39.97;17.85;;;8.30;99.90;;;;;;5066126;28;20528;-55
2024/03/12 09:59:20;;;;;;;34.88;16.75;;;8.30;99.90;;;;;;5070118;28;20497;-56
2024/03/12 10:01:47;;;;;;;27.83;15.10;;;8.40;99.90;;;;;;5052754;28;20024;-53
2024/03/12 10:04:15;;;;;;;32.47;15.55;;;8.30;99.90;;;;;;5071231;28;20107;-56
2024/03/12 10:06:40;;;;;;;32.03;14.82;;;8.30;99.90;;;;;;5071254;28;20532;-56
2024/03/12 10:09:10;;;;;;;29.65;14.38;;;8.30;99.90;;;;;;5059660;28;20021;-56
2024/03/12 10:11:35;;;;;;;29.15;13.38;;;8.40;99.90;;;;;;5063716;28;20130;-57
2024/03/12 10:14:03;;;;;;;48.30;19.45;;;8.30;99.90;;;;;;5066884;28;20025;-56
2024/03/12 10:16:32;;;;;;;38.15;15.85;;;8.40;99.90;;;;;;5050693;28;20029;-56
2024/03/12 10:19:14;;;;;;;59.85;25.50;;;8.40;99.90;;;;;;5050088;28;20123;-57
2024/03/12 10:21:41;;;;;;;104.60;37.65;;;8.50;99.90;;;;;;5051162;28;20029;-57
2024/03/12 10:24:14;;;;;;;98.20;38.33;;;8.70;99.90;;;;;;5051025;28;20120;-56
2024/03/12 10:26:48;;;;;;;62.90;28.27;;;8.80;99.90;;;;;;5054631;28;20012;-56
2024/03/12 10:29:16;;;;;;;;;;;9.00;99.90;;;;;;5056704;28;20107;-57
2024/03/12 10:31:45;;;;;;;21.60;11.82;;;9.00;99.90;;;;;;5061243;28;19959;-56
2024/03/12 10:34:19;;;;;;;24.73;12.68;;;9.10;99.90;;;;;;5061704;28;20033;-55
2024/03/12 10:36:46;;;;;;;21.38;11.65;;;9.10;99.90;;;;;;5050633;28;20021;-55
2024/03/12 10:39:23;;;;;;;23.95;12.10;;;9.10;99.90;;;;;;5051062;28;20033;-56
2024/03/12 10:41:55;;;;;;;23.83;11.70;;;9.10;99.90;;;;;;5070533;28;20031;-54
2024/03/12 10:44:21;;;;;;;25.83;12.25;;;9.00;99.90;;;;;;5070689;28;20482;-56
2024/03/12 10:46:48;;;;;;;25.92;14.00;;;8.90;99.90;;;;;;5052576;28;20096;-55
2024/03/12 10:49:17;;;;;;;29.00;13.82;;;8.80;99.90;;;;;;5050615;28;20036;-56
2024/03/12 10:51:43;;;;;;;30.15;15.23;;;8.80;99.90;;;;;;5051500;28;20021;-57
2024/03/12 10:54:21;;;;;;;29.83;15.10;;;8.80;99.90;;;;;;5065506;28;20044;-57
2024/03/12 10:56:47;;;;;;;29.58;14.75;;;8.70;99.90;;;;;;5050853;28;20489;-56
2024/03/12 10:59:16;;;;;;;27.23;14.18;;;8.70;99.90;;;;;;5050240;28;20096;-54
2024/03/12 11:01:42;;;;;;;25.73;13.02;;;8.70;99.90;;;;;;5050154;28;20036;-54
2024/03/12 11:04:09;;;;;;;28.77;14.85;;;8.70;99.90;;;;;;5062305;28;20029;-57
2024/03/12 11:06:39;;;;;;;27.02;13.77;;;8.80;99.90;;;;;;5061996;28;20025;-57
2024/03/12 11:09:06;;;;;;;29.48;14.73;;;9.00;99.90;;;;;;5050314;28;20033;-57
2024/03/12 11:11:35;;;;;;;38.45;16.65;;;9.10;99.90;;;;;;5050312;28;20466;-54
2024/03/12 11:14:05;;;;;;;27.58;13.05;;;9.10;99.90;;;;;;5053244;28;20039;-57
2024/03/12 11:16:32;;;;;;;32.65;16.50;;;9.10;99.90;;;;;;5059418;28;20032;-54
2024/03/12 11:19:22;;;;;;;27.67;13.05;;;9.30;99.90;;;;;;5068755;28;20077;-56
2024/03/12 11:21:49;;;;;;;34.80;15.18;;;9.30;99.90;;;;;;5058033;28;20032;-55
2024/03/12 11:24:25;;;;;;;32.15;15.95;;;9.30;99.90;;;;;;5049853;28;20021;-56
2024/03/12 11:26:51;;;;;;;27.75;13.45;;;9.10;99.90;;;;;;5055385;28;20020;-57
2024/03/12 11:29:17;;;;;;;29.52;15.63;;;9.00;99.90;;;;;;5070784;28;20131;-55
2024/03/12 11:31:43;;;;;;;30.10;14.68;;;8.80;99.90;;;;;;5061200;28;20033;-54
2024/03/12 11:34:10;;;;;;;32.17;14.65;;;8.70;99.90;;;;;;5053613;28;20090;-54
2024/03/12 11:36:39;;;;;;;39.78;17.10;;;8.60;99.90;;;;;;5055832;28;20090;-55
2024/03/12 11:39:12;;;;;;;30.00;15.25;;;8.50;99.90;;;;;;5069094;28;20542;-54
2024/03/12 11:41:56;;;;;;;32.38;16.30;;;8.50;99.90;;;;;;5058584;28;20025;-57
2024/03/12 11:44:45;;;;;;;34.83;16.58;;;8.50;99.90;;;;;;5069122;28;20036;-56
2024/03/12 11:47:42;;;;;;;32.13;16.38;;;8.50;99.90;;;;;;5062225;28;20016;-56
2024/03/12 11:50:36;;;;;;;47.47;21.08;;;8.50;99.90;;;;;;5058611;28;20029;-56
2024/03/12 11:53:17;;;;;;;41.40;18.98;;;8.50;99.90;;;;;;5073422;28;20115;-56
2024/03/12 11:56:10;;;;;;;42.47;18.20;;;8.60;99.90;;;;;;5056946;28;20143;-57
2024/03/12 11:58:46;;;;;;;79.10;33.42;;;8.60;99.90;;;;;;5073599;28;20078;-56
2024/03/12 12:01:18;;;;;;;60.28;22.70;;;8.60;99.90;;;;;;5073255;28;20031;-57
2024/03/12 12:03:45;;;;;;;37.80;16.02;;;8.70;99.90;;;;;;5060255;28;20025;-57
2024/03/12 12:06:11;;;;;;;36.00;17.40;;;8.70;99.90;;;;;;5060833;28;20099;-57
2024/03/12 12:08:37;;;;;;;36.75;16.90;;;8.70;99.90;;;;;;5073163;28;20462;-53
2024/03/12 12:11:11;;;;;;;36.95;16.58;;;8.70;99.90;;;;;;5058429;28;20155;-53
2024/03/12 12:13:37;;;;;;;;;;;8.70;99.90;;;;;;5060880;28;20056;-56
2024/03/12 12:16:04;;;;;;;42.40;16.60;;;8.80;99.90;;;;;;5072960;28;19954;-57
2024/03/12 12:18:31;;;;;;;40.58;18.58;;;9.00;99.90;;;;;;5073257;28;20029;-58
2024/03/12 12:21:00;;;;;;;43.88;20.70;;;9.10;99.90;;;;;;5055041;28;20051;-55
2024/03/12 12:23:27;;;;;;;38.10;17.02;;;9.30;99.90;;;;;;5060179;28;20021;-56
2024/03/12 12:25:56;;;;;;;32.58;17.02;;;9.40;99.90;;;;;;5018400;28;20025;-55
2024/03/12 12:28:27;;;;;;;37.63;18.83;;;9.60;99.90;;;;;;5054126;28;20033;-54
2024/03/12 12:31:00;;;;;;;29.65;16.17;;;9.80;99.90;;;;;;5052573;28;20029;-54
2024/03/12 12:33:28;;;;;;;28.83;15.85;;;10.00;99.90;;;;;;5065531;28;20123;-55
2024/03/12 12:35:57;;;;;;;32.63;17.08;;;10.10;99.90;;;;;;5067693;28;20387;-54
2024/03/12 12:38:25;;;;;;;32.50;15.98;;;10.40;99.90;;;;;;5052481;28;20029;-57
2024/03/12 12:40:53;;;;;;;34.63;16.83;;;10.50;99.90;;;;;;5054265;28;20021;-57
2024/03/12 12:43:22;;;;;;;28.67;14.63;;;10.60;99.90;;;;;;5037891;28;20445;-56
2024/03/12 12:45:49;;;;;;;27.95;15.85;;;10.70;99.90;;;;;;5064500;28;20025;-56
2024/03/12 12:48:18;;;;;;;35.38;18.67;;;11.00;99.90;;;;;;5072044;28;20166;-57
2024/03/12 12:50:57;;;;;;;28.30;15.68;;;11.10;99.90;;;;;;5052718;28;20033;-58